createdAt,value
2019-01-31T00:00:37.203Z,26.65
2019-01-31T00:03:35.009Z,21.50
2019-01-31T00:06:12.290Z,22.02
2019-01-31T00:09:03.129Z,30.37
2019-01-31T00:11:58.405Z,27.50
2019-01-31T00:14:47.966Z,34.05
2019-01-31T00:17:43.353Z,26.85
2019-01-31T00:20:29.414Z,26.05
2019-01-31T00:23:29.050Z,23.55
2019-01-31T00:26:30.817Z,32.03
2019-01-31T00:29:21.490Z,24.90
2019-01-31T00:32:12.619Z,28.62
2019-01-31T00:35:18.926Z,21.00
2019-01-31T00:38:17.421Z,22.95
2019-01-31T00:41:09.497Z,25.97
2019-01-31T00:43:55.462Z,23.02
2019-01-31T00:46:44.895Z,27.10
2019-01-31T00:49:27.853Z,21.60
2019-01-31T00:52:26.301Z,23.12
2019-01-31T00:55:03.262Z,16.85
2019-01-31T00:57:40.464Z,20.95
2019-01-31T01:00:20.577Z,22.00
2019-01-31T01:03:20.299Z,23.02
2019-01-31T01:06:03.285Z,23.18
2019-01-31T01:08:37.886Z,21.57
2019-01-31T01:11:36.220Z,21.07
2019-01-31T01:14:22.471Z,20.65
2019-01-31T01:17:11.683Z,21.10
2019-01-31T01:20:15.483Z,22.02
2019-01-31T01:22:52.327Z,21.80
2019-01-31T01:25:44.457Z,23.47
2019-01-31T01:28:36.692Z,17.55
2019-01-31T01:31:38.137Z,18.12
2019-01-31T01:34:36.494Z,18.82
2019-01-31T01:37:16.465Z,17.32
2019-01-31T01:39:59.660Z,20.95
2019-01-31T01:42:55.103Z,22.95
2019-01-31T01:45:50.401Z,15.23
2019-01-31T01:48:30.382Z,14.95
2019-01-31T01:51:13.483Z,15.65
2019-01-31T01:54:02.878Z,12.25
2019-01-31T01:56:48.701Z,12.55
2019-01-31T01:59:41.204Z,15.23
2019-01-31T02:02:41.938Z,14.63
2019-01-31T02:05:48.992Z,14.45
2019-01-31T02:08:54.082Z,14.95
2019-01-31T02:11:40.359Z,15.08
2019-01-31T02:14:35.735Z,17.32
2019-01-31T02:17:15.914Z,14.07
2019-01-31T02:20:08.002Z,16.15
2019-01-31T02:22:53.915Z,12.23
2019-01-31T02:25:57.028Z,12.18
2019-01-31T02:28:49.131Z,12.28
2019-01-31T02:31:25.974Z,11.30
2019-01-31T02:34:15.166Z,11.83
2019-01-31T02:36:58.136Z,12.18
2019-01-31T02:39:47.377Z,11.57
2019-01-31T02:42:25.581Z,11.75
2019-01-31T02:45:18.049Z,16.70
2019-01-31T02:48:11.786Z,14.40
2019-01-31T02:51:03.462Z,16.05
2019-01-31T02:53:55.702Z,11.63
2019-01-31T02:56:45.372Z,14.83
2019-01-31T02:59:44.140Z,11.78
2019-01-31T03:02:24.395Z,10.95
2019-01-31T03:05:09.771Z,13.85
2019-01-31T03:07:55.883Z,12.30
2019-01-31T03:10:32.875Z,11.97
2019-01-31T03:13:22.244Z,11.40
2019-01-31T03:16:20.662Z,11.90
2019-01-31T03:18:55.011Z,16.25
2019-01-31T03:21:55.076Z,15.45
2019-01-31T03:25:01.165Z,12.80
2019-01-31T03:28:11.334Z,10.08
2019-01-31T03:31:11.231Z,15.90
2019-01-31T03:34:05.125Z,12.10
2019-01-31T03:36:57.118Z,15.23
2019-01-31T03:40:06.848Z,17.23
2019-01-31T03:43:10.758Z,16.87
2019-01-31T03:46:02.999Z,14.63
2019-01-31T03:48:55.225Z,17.27
2019-01-31T03:52:01.320Z,16.70
2019-01-31T03:55:07.436Z,13.20
2019-01-31T03:58:10.348Z,16.65
2019-01-31T04:00:47.413Z,14.73
2019-01-31T04:03:33.699Z,12.00
2019-01-31T04:06:08.037Z,14.20
2019-01-31T04:08:37.861Z,12.75
2019-01-31T04:11:07.711Z,11.50
2019-01-31T04:13:37.434Z,18.65
2019-01-31T04:16:07.257Z,15.05
2019-01-31T04:18:36.970Z,14.45
2019-01-31T04:21:06.885Z,16.00
2019-01-31T04:23:36.618Z,13.58
2019-01-31T04:26:08.198Z,12.47
2019-01-31T04:28:38.285Z,15.83
2019-01-31T04:31:08.241Z,18.40
2019-01-31T04:33:37.947Z,13.35
2019-01-31T04:36:07.647Z,16.75
2019-01-31T04:38:37.343Z,13.32
2019-01-31T04:41:06.976Z,9.55
2019-01-31T04:43:36.809Z,10.88
2019-01-31T04:46:06.592Z,11.48
2019-01-31T04:48:36.381Z,9.53
2019-01-31T04:51:06.093Z,10.63
2019-01-31T04:53:35.848Z,10.45
2019-01-31T04:56:05.815Z,11.85
2019-01-31T04:58:35.762Z,9.98
2019-01-31T05:01:06.336Z,12.40
2019-01-31T05:03:36.014Z,13.93
2019-01-31T05:06:06.144Z,12.53
2019-01-31T05:08:35.818Z,11.48
2019-01-31T05:11:05.687Z,9.65
2019-01-31T05:13:35.726Z,9.53
2019-01-31T05:16:05.812Z,11.05
2019-01-31T05:18:35.626Z,11.38
2019-01-31T05:21:05.481Z,11.50
2019-01-31T05:23:35.295Z,11.73
2019-01-31T05:26:05.265Z,10.10
2019-01-31T05:28:34.936Z,13.58
2019-01-31T05:31:04.983Z,12.98
2019-01-31T05:33:34.697Z,9.95
2019-01-31T05:36:06.093Z,10.45
2019-01-31T05:38:35.750Z,9.78
2019-01-31T05:41:06.828Z,11.35
2019-01-31T05:43:36.486Z,11.12
2019-01-31T05:46:06.551Z,10.90
2019-01-31T05:48:36.456Z,10.13
2019-01-31T05:51:06.430Z,10.75
2019-01-31T05:53:36.143Z,13.88
2019-01-31T05:56:05.970Z,12.03
2019-01-31T05:58:35.828Z,9.35
2019-01-31T06:01:06.003Z,9.85
2019-01-31T06:03:35.707Z,10.18
2019-01-31T06:06:05.740Z,8.15
2019-01-31T06:08:35.393Z,11.03
2019-01-31T06:11:07.535Z,9.85
2019-01-31T06:13:37.243Z,12.53
2019-01-31T06:16:07.077Z,9.40
2019-01-31T06:18:36.895Z,9.20
2019-01-31T06:21:06.659Z,8.63
2019-01-31T06:23:36.390Z,9.23
2019-01-31T06:26:06.254Z,12.23
2019-01-31T06:28:35.917Z,11.75
2019-01-31T06:31:05.751Z,11.43
2019-01-31T06:33:35.628Z,10.63
2019-01-31T06:36:05.386Z,7.90
2019-01-31T06:38:35.071Z,9.90
2019-01-31T06:41:04.979Z,10.50
2019-01-31T06:43:34.640Z,9.80
2019-01-31T06:46:05.876Z,7.80
2019-01-31T06:48:35.759Z,9.13
2019-01-31T06:51:05.638Z,8.40
2019-01-31T06:53:35.413Z,9.93
2019-01-31T06:56:05.467Z,9.55
2019-01-31T06:58:35.235Z,8.03
2019-01-31T07:01:05.360Z,14.58
2019-01-31T07:03:35.144Z,9.85
2019-01-31T07:06:04.952Z,10.90
2019-01-31T07:08:34.732Z,8.78
2019-01-31T07:11:04.464Z,7.95
2019-01-31T07:13:34.249Z,9.73
2019-01-31T07:16:03.951Z,8.15
2019-01-31T07:18:33.617Z,8.85
2019-01-31T07:21:03.408Z,9.05
2019-01-31T07:23:33.164Z,9.43
2019-01-31T07:26:02.967Z,9.65
2019-01-31T07:28:32.701Z,7.78
2019-01-31T07:31:02.458Z,10.08
2019-01-31T07:33:32.365Z,8.98
2019-01-31T07:36:02.232Z,10.15
2019-01-31T07:38:31.891Z,7.50
2019-01-31T07:41:01.674Z,9.23
2019-01-31T07:43:31.347Z,7.40
2019-01-31T07:46:01.228Z,9.05
2019-01-31T07:48:31.163Z,7.80
2019-01-31T07:51:01.017Z,9.53
2019-01-31T07:53:30.778Z,7.67
2019-01-31T07:56:00.507Z,7.97
2019-01-31T07:58:30.223Z,7.33
2019-01-31T08:00:59.886Z,6.40
2019-01-31T08:03:29.581Z,7.05
2019-01-31T08:05:59.376Z,9.45
2019-01-31T08:08:29.060Z,9.23
2019-01-31T08:10:58.810Z,10.75
2019-01-31T08:13:28.591Z,12.07
2019-01-31T08:15:58.334Z,12.80
2019-01-31T08:18:28.083Z,8.70
2019-01-31T08:20:57.821Z,9.03
2019-01-31T08:23:27.517Z,8.10
2019-01-31T08:25:57.514Z,7.67
2019-01-31T08:28:27.458Z,8.00
2019-01-31T08:30:57.312Z,8.25
2019-01-31T08:33:28.492Z,11.48
2019-01-31T08:35:58.505Z,7.90
2019-01-31T08:38:28.257Z,8.55
2019-01-31T08:40:58.379Z,9.95
2019-01-31T08:43:28.079Z,7.85
2019-01-31T08:45:58.207Z,8.90
2019-01-31T08:48:27.947Z,8.13
2019-01-31T08:50:58.269Z,7.35
2019-01-31T08:53:27.954Z,7.27
2019-01-31T08:55:57.724Z,12.07
2019-01-31T08:58:27.370Z,11.18
2019-01-31T09:00:57.180Z,10.40
2019-01-31T09:03:26.862Z,10.53
2019-01-31T09:05:56.751Z,8.80
2019-01-31T09:08:26.496Z,8.83
2019-01-31T09:10:56.352Z,13.30
2019-01-31T09:13:26.955Z,8.93
2019-01-31T09:15:57.148Z,8.87
2019-01-31T09:18:26.962Z,8.70
2019-01-31T09:21:07.278Z,8.05
2019-01-31T09:23:47.165Z,7.72
2019-01-31T09:26:51.051Z,10.72
2019-01-31T09:29:43.121Z,11.30
2019-01-31T09:32:23.240Z,12.00
2019-01-31T09:35:21.290Z,11.23
2019-01-31T09:38:15.290Z,11.23
2019-01-31T09:40:55.308Z,12.63
2019-01-31T09:43:38.070Z,9.23
2019-01-31T09:46:53.239Z,9.03
2019-01-31T09:49:45.174Z,10.70
2019-01-31T09:52:34.424Z,9.83
2019-01-31T09:55:42.145Z,8.10
2019-01-31T09:58:27.922Z,10.33
2019-01-31T10:01:20.834Z,9.10
2019-01-31T10:04:00.832Z,8.13
2019-01-31T10:06:56.215Z,8.83
2019-01-31T10:09:51.323Z,11.23
2019-01-31T10:12:45.322Z,13.90
2019-01-31T10:15:39.458Z,12.73
2019-01-31T10:18:31.702Z,9.40
2019-01-31T10:21:08.800Z,11.53
2019-01-31T10:24:05.218Z,10.23
2019-01-31T10:26:57.821Z,12.23
2019-01-31T10:29:49.543Z,11.20
2019-01-31T10:32:49.774Z,11.53
2019-01-31T10:35:35.671Z,9.87
2019-01-31T10:38:25.222Z,10.73
2019-01-31T10:41:14.238Z,8.57
2019-01-31T10:43:55.097Z,9.43
2019-01-31T10:46:37.874Z,10.03
2019-01-31T10:49:27.433Z,8.33
2019-01-31T10:52:10.501Z,8.70
2019-01-31T10:54:47.546Z,9.30
2019-01-31T10:57:36.360Z,8.20
2019-01-31T11:00:28.132Z,9.37
2019-01-31T11:03:20.239Z,7.37
2019-01-31T11:06:21.839Z,11.87
2019-01-31T11:09:14.223Z,12.93
2019-01-31T11:11:50.950Z,11.47
2019-01-31T11:14:31.079Z,13.60
2019-01-31T11:17:20.415Z,7.17
2019-01-31T11:20:27.512Z,9.87
2019-01-31T11:23:10.383Z,10.20
2019-01-31T11:26:25.744Z,11.40
2019-01-31T11:29:18.134Z,9.43
2019-01-31T11:32:07.425Z,9.90
2019-01-31T11:34:44.469Z,9.43
2019-01-31T11:37:46.075Z,13.00
2019-01-31T11:40:25.606Z,9.53
2019-01-31T11:43:18.026Z,9.17
2019-01-31T11:46:04.175Z,10.37
2019-01-31T11:48:44.308Z,9.50
2019-01-31T11:51:52.383Z,9.37
2019-01-31T11:54:26.696Z,10.47
2019-01-31T11:57:23.657Z,10.70
2019-01-31T11:59:53.388Z,12.17
2019-01-31T12:02:23.236Z,11.03
2019-01-31T12:04:53.085Z,10.07
2019-01-31T12:07:22.906Z,9.87
2019-01-31T12:09:52.715Z,9.70
2019-01-31T12:12:22.534Z,11.10
2019-01-31T12:14:52.184Z,9.00
2019-01-31T12:17:21.889Z,9.23
2019-01-31T12:19:51.583Z,10.27
2019-01-31T12:22:21.332Z,8.60
2019-01-31T12:24:51.295Z,8.93
2019-01-31T12:27:21.143Z,10.60
2019-01-31T12:29:50.969Z,8.83
2019-01-31T12:32:20.714Z,10.87
2019-01-31T12:34:51.067Z,9.93
2019-01-31T12:37:20.786Z,8.50
2019-01-31T12:39:52.221Z,9.03
2019-01-31T12:42:21.903Z,7.90
2019-01-31T12:44:51.690Z,12.63
2019-01-31T12:47:21.426Z,13.60
2019-01-31T12:49:51.235Z,10.20
2019-01-31T12:52:21.055Z,9.90
2019-01-31T12:54:50.896Z,8.70
2019-01-31T12:57:20.720Z,7.33
2019-01-31T12:59:50.456Z,11.00
2019-01-31T13:02:20.232Z,8.97
2019-01-31T13:04:50.431Z,9.17
2019-01-31T13:07:20.268Z,12.77
2019-01-31T13:09:49.924Z,10.33
2019-01-31T13:12:19.930Z,6.20
2019-01-31T13:14:49.658Z,7.90
2019-01-31T13:17:19.416Z,6.40
2019-01-31T13:19:49.269Z,7.93
2019-01-31T13:22:19.558Z,9.17
2019-01-31T13:24:49.397Z,7.90
2019-01-31T13:27:19.351Z,7.83
2019-01-31T13:29:49.032Z,5.70
2019-01-31T13:32:18.950Z,7.83
2019-01-31T13:34:48.708Z,9.77
2019-01-31T13:37:18.548Z,6.10
2019-01-31T13:39:48.367Z,7.13
2019-01-31T13:42:18.484Z,6.43
2019-01-31T13:44:48.369Z,10.87
2019-01-31T13:47:18.203Z,12.60
2019-01-31T13:49:48.002Z,8.03
2019-01-31T13:52:17.822Z,8.40
2019-01-31T13:54:47.639Z,8.43
2019-01-31T13:57:17.418Z,11.40
2019-01-31T13:59:47.211Z,9.67
2019-01-31T14:02:17.077Z,9.13
2019-01-31T14:04:46.820Z,8.80
2019-01-31T14:07:16.604Z,10.23
2019-01-31T14:09:46.406Z,10.63
2019-01-31T14:12:16.196Z,11.13
2019-01-31T14:14:46.037Z,13.43
2019-01-31T14:17:15.878Z,9.33
2019-01-31T14:19:45.700Z,11.23
2019-01-31T14:22:15.492Z,10.83
2019-01-31T14:24:45.181Z,12.43
2019-01-31T14:27:14.911Z,10.17
2019-01-31T14:29:44.767Z,11.30
2019-01-31T14:32:15.715Z,10.53
2019-01-31T14:34:46.074Z,11.00
2019-01-31T14:37:16.042Z,13.40
2019-01-31T14:39:45.822Z,11.97
2019-01-31T14:42:15.531Z,8.90
2019-01-31T14:44:45.196Z,10.00
2019-01-31T14:47:15.048Z,10.27
2019-01-31T14:49:44.771Z,11.03
2019-01-31T14:52:14.629Z,12.63
2019-01-31T14:54:44.285Z,10.47
2019-01-31T14:57:14.148Z,13.03
2019-01-31T14:59:43.786Z,12.90
2019-01-31T15:02:13.586Z,16.13
2019-01-31T15:04:43.329Z,12.10
2019-01-31T15:07:13.148Z,12.23
2019-01-31T15:09:42.925Z,10.87
2019-01-31T15:12:12.643Z,13.83
2019-01-31T15:14:42.332Z,16.33
2019-01-31T15:17:12.225Z,12.43
2019-01-31T15:19:42.059Z,10.17
2019-01-31T15:22:12.011Z,12.53
2019-01-31T15:24:41.714Z,18.63
2019-01-31T15:27:11.955Z,13.67
2019-01-31T15:29:41.639Z,16.20
2019-01-31T15:32:11.798Z,14.67
2019-01-31T15:34:41.482Z,14.13
2019-01-31T15:37:11.214Z,14.87
2019-01-31T15:39:40.970Z,16.23
2019-01-31T15:42:10.766Z,15.17
2019-01-31T15:44:43.466Z,17.73
2019-01-31T15:47:11.951Z,14.13
2019-01-31T15:49:41.800Z,15.83
2019-01-31T15:52:11.762Z,19.57
2019-01-31T15:54:41.441Z,13.93
2019-01-31T15:57:16.725Z,15.43
2019-01-31T15:59:43.092Z,15.67
2019-01-31T16:02:13.468Z,14.93
2019-01-31T16:04:43.195Z,14.23
2019-01-31T16:07:13.060Z,14.93
2019-01-31T16:09:42.976Z,17.73
2019-01-31T16:12:14.573Z,18.57
2019-01-31T16:14:54.334Z,17.27
2019-01-31T16:17:18.537Z,16.93
2019-01-31T16:19:47.408Z,21.20
2019-01-31T16:22:17.231Z,14.87
2019-01-31T16:24:47.106Z,18.77
2019-01-31T16:27:17.044Z,20.60
2019-01-31T16:29:46.756Z,18.63
2019-01-31T16:32:16.682Z,15.50
2019-01-31T16:34:46.503Z,19.40
2019-01-31T16:37:16.449Z,19.45
2019-01-31T16:39:46.196Z,15.00
2019-01-31T16:42:17.723Z,19.77
2019-01-31T16:44:47.523Z,24.43
2019-01-31T16:47:17.356Z,20.12
2019-01-31T16:49:47.218Z,18.53
2019-01-31T16:52:17.087Z,21.17
2019-01-31T16:54:46.762Z,20.40
2019-01-31T16:57:16.592Z,19.40
2019-01-31T16:59:46.301Z,18.82
2019-01-31T17:02:16.248Z,16.85
2019-01-31T17:04:46.073Z,20.90
2019-01-31T17:07:15.873Z,19.80
2019-01-31T17:09:45.565Z,16.20
2019-01-31T17:12:15.326Z,18.07
2019-01-31T17:14:45.084Z,18.80
2019-01-31T17:17:15.125Z,19.60
2019-01-31T17:19:44.909Z,20.32
2019-01-31T17:22:14.619Z,19.65
2019-01-31T17:24:44.385Z,19.07
2019-01-31T17:27:14.167Z,22.82
2019-01-31T17:29:44.969Z,21.42
2019-01-31T17:32:14.939Z,19.82
2019-01-31T17:34:44.664Z,17.20
2019-01-31T17:37:14.449Z,18.10
2019-01-31T17:39:44.122Z,21.67
2019-01-31T17:42:13.968Z,20.90
2019-01-31T17:44:43.707Z,19.03
2019-01-31T17:47:13.419Z,21.77
2019-01-31T17:49:43.208Z,16.35
2019-01-31T17:52:12.985Z,18.63
2019-01-31T17:54:42.694Z,17.57
2019-01-31T17:57:12.534Z,20.15
2019-01-31T17:59:42.197Z,17.05
2019-01-31T18:02:11.955Z,17.70
2019-01-31T18:04:41.783Z,23.83
2019-01-31T18:07:11.519Z,20.60
2019-01-31T18:09:41.257Z,21.05
2019-01-31T18:12:11.081Z,17.65
2019-01-31T18:14:40.845Z,18.77
2019-01-31T18:17:10.515Z,19.73
2019-01-31T18:19:40.331Z,22.73
2019-01-31T18:22:10.265Z,25.05
2019-01-31T18:24:40.059Z,33.85
2019-01-31T18:27:09.803Z,33.05
2019-01-31T18:29:39.573Z,35.15
2019-01-31T18:32:09.326Z,33.42
2019-01-31T18:34:38.967Z,33.73
2019-01-31T18:37:08.811Z,26.90
2019-01-31T18:39:38.521Z,24.50
2019-01-31T18:42:08.227Z,21.85
2019-01-31T18:44:37.891Z,22.82
2019-01-31T18:47:07.761Z,20.23
2019-01-31T18:49:37.487Z,20.48
2019-01-31T18:52:07.332Z,20.52
2019-01-31T18:54:37.142Z,21.33
2019-01-31T18:57:07.085Z,23.05
2019-01-31T18:59:36.911Z,32.30
2019-01-31T19:02:07.120Z,31.15
2019-01-31T19:04:39.914Z,21.80
2019-01-31T19:07:09.844Z,23.47
2019-01-31T19:09:39.613Z,21.48
2019-01-31T19:12:09.355Z,21.25
2019-01-31T19:14:39.128Z,20.43
2019-01-31T19:17:08.971Z,20.27
2019-01-31T19:19:39.347Z,20.57
2019-01-31T19:22:09.436Z,21.55
2019-01-31T19:24:39.282Z,20.20
2019-01-31T19:27:09.081Z,19.30
2019-01-31T19:29:39.278Z,20.62
2019-01-31T19:32:09.370Z,18.48
2019-01-31T19:34:39.071Z,23.15
2019-01-31T19:37:08.896Z,18.57
2019-01-31T19:39:38.596Z,18.37
2019-01-31T19:42:08.449Z,18.98
2019-01-31T19:44:38.283Z,19.37
2019-01-31T19:47:08.091Z,17.23
2019-01-31T19:49:37.779Z,16.40
2019-01-31T19:52:07.559Z,19.15
2019-01-31T19:54:37.270Z,16.40
2019-01-31T19:57:07.091Z,16.17
2019-01-31T19:59:36.757Z,16.27
2019-01-31T20:02:06.932Z,18.25
2019-01-31T20:04:36.698Z,16.32
2019-01-31T20:07:06.804Z,14.30
2019-01-31T20:09:36.627Z,17.62
2019-01-31T20:12:06.791Z,13.88
2019-01-31T20:14:36.619Z,14.90
2019-01-31T20:17:08.586Z,17.07
2019-01-31T20:19:38.629Z,15.58
2019-01-31T20:22:08.630Z,15.88
2019-01-31T20:24:38.455Z,16.20
2019-01-31T20:27:08.435Z,15.13
2019-01-31T20:29:38.173Z,14.85
2019-01-31T20:32:08.123Z,15.43
2019-01-31T20:34:38.071Z,14.53
2019-01-31T20:37:07.856Z,16.65
2019-01-31T20:39:38.130Z,13.53
2019-01-31T20:42:07.941Z,13.83
2019-01-31T20:44:37.788Z,15.25
2019-01-31T20:47:07.740Z,16.45
2019-01-31T20:49:37.500Z,12.37
2019-01-31T20:52:07.396Z,12.13
2019-01-31T20:54:37.207Z,14.78
2019-01-31T20:57:07.032Z,15.10
2019-01-31T20:59:36.821Z,14.60
2019-01-31T21:02:06.747Z,15.50
2019-01-31T21:04:37.344Z,15.35
2019-01-31T21:07:07.588Z,14.50
2019-01-31T21:09:37.314Z,16.52
2019-01-31T21:12:07.211Z,18.35
2019-01-31T21:14:36.938Z,18.32
2019-01-31T21:17:06.957Z,15.32
2019-01-31T21:19:36.647Z,13.15
2019-01-31T21:22:06.787Z,14.60
2019-01-31T21:24:36.492Z,15.65
2019-01-31T21:27:06.304Z,16.17
2019-01-31T21:29:35.991Z,14.15
2019-01-31T21:32:05.898Z,14.15
2019-01-31T21:34:35.673Z,15.65
2019-01-31T21:37:05.740Z,15.63
2019-01-31T21:39:35.553Z,16.32
2019-01-31T21:42:07.858Z,15.00
2019-01-31T21:44:36.974Z,16.70
2019-01-31T21:47:06.908Z,13.25
2019-01-31T21:49:36.655Z,15.28
2019-01-31T21:52:06.934Z,14.87
2019-01-31T21:54:36.713Z,16.48
2019-01-31T21:57:06.547Z,13.60
2019-01-31T21:59:36.183Z,17.62
2019-01-31T22:02:06.402Z,16.67
2019-01-31T22:04:36.034Z,17.35
2019-01-31T22:07:06.157Z,15.85
2019-01-31T22:09:35.887Z,16.02
2019-01-31T22:12:07.517Z,16.67
2019-01-31T22:14:37.295Z,15.80
2019-01-31T22:17:14.187Z,17.35
2019-01-31T22:19:38.600Z,16.85
2019-01-31T22:22:08.310Z,17.15
2019-01-31T22:24:38.171Z,22.02
2019-01-31T22:27:07.900Z,18.00
2019-01-31T22:29:37.552Z,15.63
2019-01-31T22:32:07.489Z,16.55
2019-01-31T22:34:37.201Z,17.07
2019-01-31T22:37:07.014Z,16.67
2019-01-31T22:39:36.807Z,15.58
2019-01-31T22:42:06.706Z,14.73
2019-01-31T22:44:36.436Z,15.30
2019-01-31T22:47:06.458Z,14.18
2019-01-31T22:49:36.101Z,15.75
2019-01-31T22:52:05.970Z,14.87
2019-01-31T22:54:35.630Z,16.42
2019-01-31T22:57:05.717Z,17.15
2019-01-31T22:59:35.465Z,14.90
2019-01-31T23:02:07.371Z,13.13
2019-01-31T23:04:38.296Z,13.18
2019-01-31T23:07:08.326Z,14.80
2019-01-31T23:09:38.323Z,13.93
2019-01-31T23:12:08.347Z,18.95
2019-01-31T23:14:38.192Z,13.93
2019-01-31T23:17:08.169Z,15.13
2019-01-31T23:19:38.049Z,14.95
2019-01-31T23:22:08.019Z,15.68
2019-01-31T23:24:37.709Z,13.78
2019-01-31T23:27:07.558Z,14.13
2019-01-31T23:29:37.520Z,13.58
2019-01-31T23:32:07.771Z,13.05
2019-01-31T23:34:37.432Z,14.65
2019-01-31T23:37:07.232Z,14.73
2019-01-31T23:39:36.954Z,13.05
2019-01-31T23:42:06.736Z,13.43
2019-01-31T23:44:36.404Z,13.25
2019-01-31T23:47:06.380Z,14.07
2019-01-31T23:49:36.039Z,14.75
2019-01-31T23:52:06.000Z,12.20
2019-01-31T23:54:35.717Z,13.30
2019-01-31T23:57:05.737Z,13.53
2019-01-31T23:59:35.408Z,11.83
